createdAt,value
2023-01-21T00:01:10.307Z,3.97
2023-01-21T00:03:37.389Z,3.90
2023-01-21T00:06:04.964Z,4.01
2023-01-21T00:08:32.302Z,3.97
2023-01-21T00:11:06.608Z,3.87
2023-01-21T00:13:35.256Z,3.84
2023-01-21T00:16:04.528Z,3.76
2023-01-21T00:18:31.804Z,3.72
2023-01-21T00:20:58.757Z,3.61
2023-01-21T00:23:26.378Z,3.50
2023-01-21T00:26:01.138Z,3.47
2023-01-21T00:28:29.793Z,3.37
2023-01-21T00:31:02.398Z,3.25
2023-01-21T00:33:30.612Z,3.01
2023-01-21T00:36:01.516Z,2.96
2023-01-21T00:38:28.874Z,2.95
2023-01-21T00:41:03.992Z,2.97
2023-01-21T00:43:31.292Z,2.88
2023-01-21T00:45:58.719Z,2.85
2023-01-21T00:48:25.883Z,2.88
2023-01-21T00:50:54.769Z,2.95
2023-01-21T00:53:23.826Z,2.99
2023-01-21T00:55:50.858Z,3.04
2023-01-21T00:58:18.061Z,2.99
2023-01-21T01:00:45.086Z,2.99
2023-01-21T01:03:11.912Z,2.95
2023-01-21T01:05:39.006Z,2.96
2023-01-21T01:08:05.866Z,2.95
2023-01-21T01:10:32.890Z,3.07
2023-01-21T01:13:01.004Z,3.16
2023-01-21T01:15:27.777Z,3.19
2023-01-21T01:17:54.509Z,3.21
2023-01-21T01:20:21.494Z,3.25
2023-01-21T01:22:48.416Z,3.26
2023-01-21T01:25:15.651Z,3.36
2023-01-21T01:27:42.381Z,3.46
2023-01-21T01:30:10.120Z,3.47
2023-01-21T01:32:37.155Z,3.44
2023-01-21T01:35:04.473Z,3.42
2023-01-21T01:37:31.373Z,3.59
2023-01-21T01:39:58.239Z,3.59
2023-01-21T01:42:25.077Z,3.58
2023-01-21T01:45:06.421Z,3.71
2023-01-21T01:47:40.506Z,3.74
2023-01-21T01:50:11.820Z,3.89
2023-01-21T01:52:40.051Z,3.91
2023-01-21T01:55:08.646Z,3.90
2023-01-21T01:57:40.533Z,3.95
2023-01-21T02:00:10.201Z,4.05
2023-01-21T02:02:43.173Z,3.98
2023-01-21T02:05:11.665Z,4.04
2023-01-21T02:07:44.967Z,3.97
2023-01-21T02:10:14.518Z,3.90
2023-01-21T02:12:43.895Z,3.84
2023-01-21T02:15:12.215Z,3.79
2023-01-21T02:18:11.659Z,3.74
2023-01-21T02:21:29.081Z,3.63
2023-01-21T02:24:07.292Z,3.64
2023-01-21T02:26:59.995Z,3.55
2023-01-21T02:29:58.098Z,3.40
2023-01-21T02:32:53.224Z,3.46
2023-01-21T02:35:56.329Z,3.39
2023-01-21T02:38:47.043Z,3.26
2023-01-21T02:41:16.431Z,3.18
2023-01-21T02:44:10.390Z,3.19
2023-01-21T02:47:28.890Z,3.07
2023-01-21T02:50:13.959Z,2.87
2023-01-21T02:52:40.742Z,2.72
2023-01-21T02:55:16.850Z,2.59
2023-01-21T02:57:50.800Z,2.50
2023-01-21T03:00:23.370Z,2.44
2023-01-21T03:03:34.918Z,2.25
2023-01-21T03:06:19.665Z,2.18
2023-01-21T03:08:54.378Z,2.19
2023-01-21T03:11:22.460Z,2.33
2023-01-21T03:14:19.610Z,2.21
2023-01-21T03:16:58.481Z,2.13
2023-01-21T03:19:39.051Z,2.07
2023-01-21T03:22:15.276Z,2.03
2023-01-21T03:24:47.254Z,2.11
2023-01-21T03:27:16.946Z,2.24
2023-01-21T03:29:46.953Z,2.19
2023-01-21T03:32:18.824Z,2.09
2023-01-21T03:34:51.588Z,1.91
2023-01-21T03:37:28.020Z,1.94
2023-01-21T03:40:21.218Z,2.00
2023-01-21T03:42:56.305Z,2.03
2023-01-21T03:45:38.480Z,2.11
2023-01-21T03:48:22.372Z,2.16
2023-01-21T03:50:56.918Z,2.05
2023-01-21T03:53:23.859Z,2.00
2023-01-21T03:55:52.076Z,1.97
2023-01-21T03:58:19.142Z,2.02
2023-01-21T04:00:47.021Z,1.92
2023-01-21T04:03:14.276Z,1.98
2023-01-21T04:05:41.142Z,1.82
2023-01-21T04:08:08.176Z,1.91
2023-01-21T04:10:35.482Z,1.87
2023-01-21T04:13:02.848Z,1.85
2023-01-21T04:15:29.666Z,1.88
2023-01-21T04:17:56.872Z,1.90
2023-01-21T04:20:24.206Z,1.97
2023-01-21T04:22:50.983Z,1.75
2023-01-21T04:25:17.774Z,1.64
2023-01-21T04:27:44.753Z,1.66
2023-01-21T04:30:11.887Z,1.55
2023-01-21T04:32:38.931Z,1.59
2023-01-21T04:35:06.203Z,1.43
2023-01-21T04:37:33.574Z,1.28
2023-01-21T04:40:00.569Z,1.09
2023-01-21T04:42:27.497Z,1.06
2023-01-21T04:44:54.305Z,1.08
2023-01-21T04:47:21.116Z,0.89
2023-01-21T04:49:48.927Z,0.92
2023-01-21T04:52:15.943Z,0.93
2023-01-21T04:54:42.689Z,0.94
2023-01-21T04:57:11.141Z,0.84
2023-01-21T04:59:38.061Z,0.90
2023-01-21T05:02:04.961Z,1.03
2023-01-21T05:04:33.046Z,1.08
2023-01-21T05:06:59.776Z,1.17
2023-01-21T05:09:26.779Z,1.14
2023-01-21T05:11:53.635Z,1.22
2023-01-21T05:14:20.360Z,1.22
2023-01-21T05:16:47.555Z,1.28
2023-01-21T05:19:14.478Z,1.24
2023-01-21T05:21:41.564Z,1.36
2023-01-21T05:24:11.794Z,1.42
2023-01-21T05:26:38.704Z,1.29
2023-01-21T05:29:05.757Z,1.32
2023-01-21T05:31:33.167Z,1.31
2023-01-21T05:34:00.384Z,1.39
2023-01-21T05:36:27.428Z,1.27
2023-01-21T05:38:54.521Z,1.22
2023-01-21T05:41:22.009Z,1.30
2023-01-21T05:43:48.819Z,1.40
2023-01-21T05:46:16.099Z,1.41
2023-01-21T05:48:43.005Z,1.41
2023-01-21T05:51:10.573Z,1.32
2023-01-21T05:53:40.320Z,1.43
2023-01-21T05:56:08.380Z,1.37
2023-01-21T05:58:35.754Z,1.44
2023-01-21T06:01:03.203Z,1.56
2023-01-21T06:03:30.540Z,1.51
2023-01-21T06:05:57.515Z,1.52
2023-01-21T06:08:24.967Z,1.54
2023-01-21T06:10:55.253Z,1.61
2023-01-21T06:13:23.028Z,1.60
2023-01-21T06:15:50.709Z,1.69
2023-01-21T06:18:17.523Z,1.60
2023-01-21T06:20:44.302Z,1.61
2023-01-21T06:23:14.031Z,1.51
2023-01-21T06:25:41.490Z,1.56
2023-01-21T06:28:11.731Z,1.71
2023-01-21T06:30:39.283Z,2.08
2023-01-21T06:33:06.374Z,2.31
2023-01-21T06:35:37.492Z,2.94
2023-01-21T06:38:05.940Z,3.39
2023-01-21T06:40:32.711Z,4.01
2023-01-21T06:42:59.929Z,4.47
2023-01-21T06:45:27.229Z,4.92
2023-01-21T06:47:54.170Z,5.28
2023-01-21T06:50:21.266Z,5.71
2023-01-21T06:52:49.208Z,6.16
2023-01-21T06:55:16.318Z,6.76
2023-01-21T06:57:44.460Z,6.98
2023-01-21T07:00:13.466Z,7.19
2023-01-21T07:02:40.823Z,7.20
2023-01-21T07:05:08.248Z,7.46
2023-01-21T07:07:35.858Z,7.57
2023-01-21T07:10:15.563Z,7.65
2023-01-21T07:12:45.019Z,7.77
2023-01-21T07:15:13.436Z,7.92
2023-01-21T07:17:42.059Z,7.91
2023-01-21T07:20:13.665Z,7.91
2023-01-21T07:22:41.181Z,8.09
2023-01-21T07:25:09.356Z,8.17
2023-01-21T07:27:36.325Z,8.24
2023-01-21T07:30:03.751Z,8.33
2023-01-21T07:32:30.712Z,8.29
2023-01-21T07:34:57.742Z,8.53
2023-01-21T07:37:26.436Z,8.61
2023-01-21T07:39:57.620Z,8.65
2023-01-21T07:42:38.552Z,8.79
2023-01-21T07:45:06.883Z,8.90
2023-01-21T07:47:33.728Z,9.00
2023-01-21T07:50:05.119Z,9.04
2023-01-21T07:52:35.918Z,9.20
2023-01-21T07:55:03.447Z,9.28
2023-01-21T07:57:32.300Z,9.44
2023-01-21T08:00:00.006Z,9.49
2023-01-21T08:02:28.211Z,9.39
2023-01-21T08:04:55.056Z,9.50
2023-01-21T08:07:21.909Z,9.70
2023-01-21T08:09:48.677Z,9.77
2023-01-21T08:12:17.602Z,9.90
2023-01-21T08:14:45.107Z,9.85
2023-01-21T08:17:21.110Z,9.89
2023-01-21T08:19:56.056Z,9.95
2023-01-21T08:22:23.817Z,9.90
2023-01-21T08:24:58.509Z,9.90
2023-01-21T08:27:26.297Z,10.02
2023-01-21T08:29:54.673Z,10.08
2023-01-21T08:32:24.067Z,10.28
2023-01-21T08:34:54.190Z,10.40
2023-01-21T08:37:21.453Z,10.40
2023-01-21T08:39:48.406Z,10.44
2023-01-21T08:42:15.801Z,10.42
2023-01-21T08:44:58.365Z,10.48
2023-01-21T08:47:25.222Z,10.43
2023-01-21T08:49:52.235Z,10.63
2023-01-21T08:52:20.711Z,10.80
2023-01-21T08:54:49.735Z,10.83
2023-01-21T08:57:17.448Z,10.79
2023-01-21T08:59:44.053Z,10.91
2023-01-21T09:02:24.308Z,11.00
2023-01-21T09:05:15.978Z,10.98
2023-01-21T09:08:07.132Z,10.96
2023-01-21T09:10:53.981Z,10.97
2023-01-21T09:13:20.968Z,11.04
2023-01-21T09:15:47.847Z,11.15
2023-01-21T09:18:14.906Z,11.19
2023-01-21T09:20:41.792Z,11.12
2023-01-21T09:23:24.831Z,11.01
2023-01-21T09:26:07.374Z,11.13
2023-01-21T09:28:37.119Z,11.31
2023-01-21T09:31:07.477Z,11.37
2023-01-21T09:33:37.692Z,11.23
2023-01-21T09:36:07.746Z,11.21
2023-01-21T09:38:35.023Z,11.22
2023-01-21T09:41:19.270Z,11.30
2023-01-21T09:44:01.920Z,11.26
2023-01-21T09:46:40.394Z,11.35
2023-01-21T09:49:31.885Z,11.40
2023-01-21T09:52:15.271Z,11.53
2023-01-21T09:54:43.151Z,11.52
2023-01-21T09:57:36.652Z,11.53
2023-01-21T10:00:20.001Z,11.47
2023-01-21T10:02:52.825Z,11.66
2023-01-21T10:05:25.829Z,11.58
2023-01-21T10:08:04.417Z,11.44
2023-01-21T10:10:41.889Z,11.54
2023-01-21T10:13:08.870Z,11.44
2023-01-21T10:15:39.716Z,11.37
2023-01-21T10:19:31.763Z,11.33
2023-01-21T10:22:27.203Z,11.33
2023-01-21T10:25:25.434Z,11.31
2023-01-21T10:27:54.305Z,11.30
2023-01-21T10:30:22.921Z,11.41
2023-01-21T10:32:52.518Z,11.41
2023-01-21T10:35:39.301Z,11.42
2023-01-21T10:38:35.120Z,11.47
2023-01-21T10:51:44.096Z,11.78
2023-01-21T10:54:29.875Z,11.88
2023-01-21T10:57:05.339Z,11.93
2023-01-21T10:59:36.868Z,11.95
2023-01-21T11:02:10.135Z,12.05
2023-01-21T11:04:39.861Z,12.17
2023-01-21T11:07:10.109Z,12.06
2023-01-21T11:09:43.446Z,12.10
2023-01-21T11:12:11.980Z,12.31
2023-01-21T11:14:38.742Z,12.28
2023-01-21T11:17:17.597Z,12.26
2023-01-21T11:20:03.341Z,12.23
2023-01-21T11:22:54.981Z,12.16
2023-01-21T11:25:28.536Z,12.17
2023-01-21T11:27:57.731Z,12.23
2023-01-21T11:30:51.580Z,12.13
2023-01-21T11:33:27.285Z,12.16
2023-01-21T11:35:57.205Z,11.88
2023-01-21T11:38:32.277Z,11.78
2023-01-21T11:41:09.349Z,11.64
2023-01-21T11:43:50.275Z,11.54
2023-01-21T11:46:46.412Z,11.39
2023-01-21T11:49:15.967Z,11.08
2023-01-21T11:51:46.167Z,10.92
2023-01-21T11:54:17.639Z,10.78
2023-01-21T11:57:01.207Z,10.73
2023-01-21T11:59:41.834Z,10.55
2023-01-21T12:06:08.480Z,10.42
2023-01-21T12:09:31.651Z,10.45
2023-01-21T12:16:19.175Z,10.63
2023-01-21T12:19:39.459Z,10.63
2023-01-21T12:22:45.653Z,10.60
2023-01-21T12:33:33.902Z,10.78
2023-01-21T12:36:17.178Z,10.80
2023-01-21T12:39:21.629Z,10.90
2023-01-21T12:42:08.317Z,10.90
2023-01-21T12:44:44.298Z,10.92
2023-01-21T12:47:19.288Z,10.88
2023-01-21T12:49:52.859Z,10.85
2023-01-21T12:52:27.157Z,10.90
2023-01-21T12:55:39.831Z,10.85
2023-01-21T12:58:14.317Z,10.77
2023-01-21T13:00:48.674Z,10.65
2023-01-21T13:03:50.515Z,10.54
2023-01-21T13:06:52.798Z,10.45
2023-01-21T13:09:43.446Z,10.35
2023-01-21T13:12:20.368Z,10.28
2023-01-21T13:14:55.394Z,10.25
2023-01-21T13:17:30.289Z,10.24
2023-01-21T13:19:57.136Z,10.34
2023-01-21T13:22:49.106Z,10.47
2023-01-21T13:25:28.658Z,10.52
2023-01-21T13:28:21.585Z,10.56
2023-01-21T13:30:51.835Z,10.58
2023-01-21T13:33:37.283Z,10.62
2023-01-21T13:36:47.108Z,10.73
2023-01-21T13:39:36.987Z,10.71
2023-01-21T13:42:35.893Z,10.71
2023-01-21T13:45:02.738Z,10.77
2023-01-21T13:47:41.925Z,10.85
2023-01-21T13:50:51.116Z,10.81
2023-01-21T13:53:41.391Z,10.81
2023-01-21T13:56:29.961Z,10.91
2023-01-21T13:58:59.378Z,11.04
2023-01-21T14:02:18.648Z,11.12
2023-01-21T14:05:01.157Z,11.15
2023-01-21T14:07:42.640Z,11.15
2023-01-21T14:10:40.718Z,11.12
2023-01-21T14:13:22.812Z,11.18
2023-01-21T14:16:11.872Z,11.13
2023-01-21T14:19:00.455Z,11.11
2023-01-21T14:21:39.477Z,11.14
2023-01-21T14:24:24.869Z,11.14
2023-01-21T14:27:20.901Z,11.07
2023-01-21T14:30:11.884Z,11.09
2023-01-21T14:32:57.003Z,11.10
2023-01-21T14:35:36.799Z,11.03
2023-01-21T14:38:12.670Z,11.15
2023-01-21T14:41:03.099Z,11.10
2023-01-21T14:43:33.066Z,11.15
2023-01-21T14:46:01.331Z,11.18
2023-01-21T14:48:52.660Z,11.20
2023-01-21T14:51:22.144Z,11.08
2023-01-21T14:53:54.443Z,11.16
2023-01-21T14:56:35.825Z,11.18
2023-01-21T14:59:24.298Z,11.16
2023-01-21T15:02:01.255Z,11.12
2023-01-21T15:04:31.305Z,11.12
2023-01-21T15:07:07.141Z,11.10
2023-01-21T15:09:37.512Z,11.00
2023-01-21T15:12:15.853Z,11.06
2023-01-21T15:14:43.511Z,10.99
2023-01-21T15:17:45.870Z,11.02
2023-01-21T15:20:46.891Z,11.02
2023-01-21T15:23:32.328Z,10.95
2023-01-21T15:26:08.632Z,10.85
2023-01-21T15:28:51.047Z,10.91
2023-01-21T15:31:20.816Z,11.01
2023-01-21T15:33:47.546Z,11.08
2023-01-21T15:36:24.606Z,11.04
2023-01-21T15:38:54.630Z,10.98
2023-01-21T15:41:29.166Z,11.01
2023-01-21T15:44:15.073Z,10.98
2023-01-21T15:46:52.284Z,10.96
2023-01-21T15:49:39.894Z,10.91
2023-01-21T15:52:15.796Z,10.93
2023-01-21T15:55:11.914Z,10.86
2023-01-21T15:58:03.751Z,10.93
2023-01-21T16:00:35.209Z,10.88
2023-01-21T16:03:11.358Z,10.93
2023-01-21T16:06:10.636Z,11.00
2023-01-21T16:09:06.293Z,11.01
2023-01-21T16:11:42.562Z,11.06
2023-01-21T16:14:27.771Z,11.15
2023-01-21T16:17:03.591Z,11.08
2023-01-21T16:19:36.855Z,11.10
2023-01-21T16:22:08.034Z,11.13
2023-01-21T16:24:40.507Z,11.17
2023-01-21T16:27:17.147Z,11.21
2023-01-21T16:29:44.224Z,11.18
2023-01-21T16:32:19.868Z,11.24
2023-01-21T16:34:47.869Z,11.27
2023-01-21T16:37:16.373Z,11.22
2023-01-21T16:39:44.452Z,11.24
2023-01-21T16:42:44.296Z,11.21
2023-01-21T16:45:20.118Z,11.22
2023-01-21T16:47:57.084Z,11.20
2023-01-21T16:50:34.556Z,11.28
2023-01-21T16:53:08.236Z,11.37
2023-01-21T16:55:45.489Z,11.35
2023-01-21T16:58:32.677Z,11.45
2023-01-21T17:01:08.608Z,11.51
2023-01-21T17:03:36.596Z,11.46
2023-01-21T17:06:37.742Z,11.52
2023-01-21T17:08:59.623Z,11.52
2023-01-21T17:11:27.279Z,11.51
2023-01-21T17:13:54.304Z,11.59
2023-01-21T17:16:27.746Z,11.53
2023-01-21T17:19:18.374Z,11.56
2023-01-21T17:21:49.986Z,11.60
2023-01-21T17:24:27.804Z,11.57
2023-01-21T17:26:57.082Z,11.65
2023-01-21T17:29:32.171Z,11.57
2023-01-21T17:32:05.013Z,11.60
2023-01-21T17:34:33.754Z,11.61
2023-01-21T17:37:00.851Z,11.66
2023-01-21T17:39:49.704Z,11.62
2023-01-21T17:42:21.426Z,11.61
2023-01-21T17:44:55.972Z,11.66
2023-01-21T17:47:34.691Z,11.68
2023-01-21T17:50:12.652Z,11.64
2023-01-21T17:52:40.056Z,11.66
2023-01-21T17:55:28.461Z,11.56
2023-01-21T17:57:56.163Z,11.60
2023-01-21T18:00:30.972Z,11.55
2023-01-21T18:02:58.198Z,11.52
2023-01-21T18:05:25.122Z,11.55
2023-01-21T18:07:52.305Z,11.55
2023-01-21T18:10:24.363Z,11.64
2023-01-21T18:12:51.602Z,11.66
2023-01-21T18:15:20.625Z,11.66
2023-01-21T18:17:58.704Z,11.66
2023-01-21T18:20:28.680Z,11.59
2023-01-21T18:22:57.486Z,11.59
2023-01-21T18:25:27.732Z,11.67
2023-01-21T18:27:55.037Z,11.75
2023-01-21T18:30:25.280Z,11.73
2023-01-21T18:32:53.263Z,11.66
2023-01-21T18:35:21.900Z,11.73
2023-01-21T18:37:48.961Z,11.58
2023-01-21T18:40:21.583Z,11.65
2023-01-21T18:42:50.990Z,11.65
2023-01-21T18:45:23.035Z,11.59
2023-01-21T18:47:50.979Z,11.58
2023-01-21T18:50:22.012Z,11.70
2023-01-21T18:52:49.023Z,11.65
2023-01-21T18:55:17.665Z,11.73
2023-01-21T18:57:47.695Z,11.77
2023-01-21T19:00:24.575Z,11.74
2023-01-21T19:02:53.911Z,11.80
2023-01-21T19:05:28.111Z,11.82
2023-01-21T19:07:55.023Z,11.79
2023-01-21T19:10:21.974Z,11.73
2023-01-21T19:12:49.215Z,11.67
2023-01-21T19:15:19.466Z,11.60
2023-01-21T19:17:47.724Z,11.69
2023-01-21T19:20:25.663Z,11.69
2023-01-21T19:22:57.300Z,11.60
2023-01-21T19:25:26.366Z,11.51
2023-01-21T19:27:55.987Z,11.52
2023-01-21T19:30:31.585Z,11.50
2023-01-21T19:33:01.648Z,11.48
2023-01-21T19:35:32.459Z,11.43
2023-01-21T19:38:05.061Z,11.42
2023-01-21T19:40:31.999Z,11.37
2023-01-21T19:42:59.018Z,11.34
2023-01-21T19:45:28.775Z,11.37
2023-01-21T19:47:55.555Z,11.47
2023-01-21T19:50:25.430Z,11.43
2023-01-21T19:52:54.331Z,11.40
2023-01-21T19:55:26.033Z,11.39
2023-01-21T19:57:57.485Z,11.35
2023-01-21T20:00:26.820Z,11.38
2023-01-21T20:02:53.601Z,11.44
2023-01-21T20:05:21.233Z,11.45
2023-01-21T20:07:50.893Z,11.41
2023-01-21T20:10:20.874Z,11.39
2023-01-21T20:12:48.899Z,11.41
2023-01-21T20:15:16.858Z,11.38
2023-01-21T20:17:51.178Z,11.34
2023-01-21T20:20:23.638Z,11.31
2023-01-21T20:22:51.467Z,11.34
2023-01-21T20:25:21.073Z,11.36
2023-01-21T20:27:58.945Z,11.32
2023-01-21T20:30:28.117Z,11.41
2023-01-21T20:32:55.977Z,11.32
2023-01-21T20:35:26.736Z,11.42
2023-01-21T20:37:55.817Z,11.34
2023-01-21T20:40:29.274Z,11.41
2023-01-21T20:42:57.574Z,11.42
2023-01-21T20:45:30.681Z,11.43
2023-01-21T20:48:01.138Z,11.40
2023-01-21T20:50:34.142Z,11.41
2023-01-21T20:53:02.335Z,11.45
2023-01-21T20:55:31.294Z,11.42
2023-01-21T20:58:23.934Z,11.50
2023-01-21T21:00:49.884Z,11.45
2023-01-21T21:03:18.498Z,11.41
2023-01-21T21:05:59.289Z,11.40
2023-01-21T21:08:31.681Z,11.39
2023-01-21T21:11:02.026Z,11.49
2023-01-21T21:13:29.473Z,11.47
2023-01-21T21:35:44.986Z,11.31
2023-01-21T21:38:38.774Z,11.56
2023-01-21T21:41:55.685Z,11.36
2023-01-21T21:44:22.601Z,11.34
2023-01-21T21:47:08.143Z,11.43
2023-01-21T21:49:34.928Z,11.43
2023-01-21T21:52:02.013Z,11.43
2023-01-21T21:54:28.706Z,11.47
2023-01-21T21:56:55.566Z,11.47
2023-01-21T21:59:22.317Z,11.40
2023-01-21T22:01:49.562Z,11.50
2023-01-21T22:04:16.387Z,11.58
2023-01-21T22:06:43.402Z,11.64
2023-01-21T22:09:11.993Z,11.58
2023-01-21T22:12:06.730Z,11.56
2023-01-21T22:14:34.168Z,11.41
2023-01-21T22:17:01.059Z,11.34
2023-01-21T22:19:27.744Z,11.50
2023-01-21T22:21:57.683Z,11.40
2023-01-21T22:24:24.435Z,11.27
2023-01-21T22:26:51.096Z,11.34
2023-01-21T22:29:17.936Z,11.09
2023-01-21T22:31:44.717Z,11.13
2023-01-21T22:34:11.744Z,11.12
2023-01-21T22:36:38.611Z,11.16
2023-01-21T22:39:05.333Z,11.16
2023-01-21T22:41:32.542Z,11.19
2023-01-21T22:43:59.267Z,11.14
2023-01-21T22:46:30.324Z,11.11
2023-01-21T22:49:00.543Z,11.09
2023-01-21T22:51:27.782Z,11.04
2023-01-21T22:53:55.086Z,11.01
2023-01-21T22:56:39.982Z,10.96
2023-01-21T22:59:10.799Z,10.94
2023-01-21T23:01:37.612Z,10.92
2023-01-21T23:04:04.733Z,10.94
2023-01-21T23:06:31.588Z,10.95
2023-01-21T23:08:58.445Z,10.84
2023-01-21T23:11:25.436Z,10.80
2023-01-21T23:13:54.516Z,10.80
2023-01-21T23:16:21.949Z,10.74
2023-01-21T23:18:48.912Z,10.78
2023-01-21T23:21:21.241Z,10.82
2023-01-21T23:23:49.300Z,10.80
2023-01-21T23:26:19.305Z,10.70
2023-01-21T23:28:46.573Z,10.73
2023-01-21T23:31:17.087Z,10.69
2023-01-21T23:33:43.896Z,10.66
2023-01-21T23:36:13.776Z,10.50
2023-01-21T23:38:41.956Z,10.36
2023-01-21T23:41:11.725Z,10.08
2023-01-21T23:43:39.521Z,9.83
2023-01-21T23:46:08.054Z,9.70
2023-01-21T23:48:34.805Z,9.53
2023-01-21T23:51:07.149Z,9.44
2023-01-21T23:53:34.736Z,9.40
2023-01-21T23:56:11.159Z,9.37
2023-01-21T23:58:37.940Z,9.36
